logo
Search for airport 
image banner adimage banner adimage banner ad
image banner ad

LSER - Raron

Located in Raron, Switzerland

ICAO - LSER, IATA -

Data provided by Airmate  

General information

Coordinates: N46°18'5" E7°49'58"
Elevation is 2096 feet MSL.
Magnetic variation is 2.738° East
View others Airports in Valais

Operational data

Special qualification required
Current time UTC:
Current local time:
Weather at : LSGS - Sion ( 40 km )
METAR: LSGS 202320Z AUTO VRB02KT CAVOK 03/M01 Q1020
TAF: TAF LSGS 201425Z 2015/2024 VRB02KT 9999 SCT070
View NOTAMs / SUP AIP / TFR affecting this airport [VIEW]
Communications frequencies: [VIEW]

Runways:

Airport contact information

Address: Raron Switzerland

Satellite view of LSER